Time;durP1;ratioP1;P1;durP2;ratioP2;P2;SDS_P1;SDS_P2;PMS_P1;PMS_P2;Temp;Humidity;BMP_temperature;BMP_pressure;BME280_temperature;BME280_humidity;BME280_pressure;Samples;Min_cycle;Max_cycle;Signal;HPM_P1;HPM_P2
2023/01/01 00:00:14;;;;;;;15.20;10.00;;;13.00;74.90;;;;;;5041426;28;20045;-62
2023/01/01 00:02:42;;;;;;;15.82;10.95;;;13.10;74.90;;;;;;5050666;28;20052;-62
2023/01/01 00:05:09;;;;;;;15.30;10.73;;;13.00;74.70;;;;;;5050901;28;20122;-62
2023/01/01 00:07:42;;;;;;;15.20;11.38;;;13.00;74.80;;;;;;5056863;28;20049;-61
2023/01/01 00:10:29;;;;;;;15.60;10.73;;;13.00;75.10;;;;;;5059212;28;20106;-62
2023/01/01 00:12:57;;;;;;;15.95;11.00;;;13.00;74.80;;;;;;5055690;28;20059;-61
2023/01/01 00:15:30;;;;;;;13.50;10.45;;;13.00;75.10;;;;;;5052325;28;20051;-63
2023/01/01 00:18:02;;;;;;;13.48;9.80;;;13.00;74.80;;;;;;5055062;28;20056;-62
2023/01/01 00:20:29;;;;;;;16.00;9.68;;;13.00;74.90;;;;;;5059962;28;20131;-59
2023/01/01 00:22:56;;;;;;;12.00;8.82;;;13.00;74.50;;;;;;5056798;28;20056;-60
2023/01/01 00:25:23;;;;;;;14.60;8.40;;;12.90;74.80;;;;;;5058050;28;20045;-60
2023/01/01 00:27:50;;;;;;;12.60;8.50;;;13.00;74.90;;;;;;5057651;28;24466;-63
2023/01/01 00:30:17;;;;;;;16.23;8.70;;;13.00;75.00;;;;;;5058019;28;20048;-63
2023/01/01 00:32:44;;;;;;;14.07;8.70;;;13.00;75.20;;;;;;5059410;28;20049;-65
2023/01/01 00:35:12;;;;;;;12.40;7.90;;;12.90;75.20;;;;;;5056566;28;20119;-64
2023/01/01 00:37:40;;;;;;;11.07;7.13;;;12.90;75.50;;;;;;5058014;28;20040;-65
2023/01/01 00:40:07;;;;;;;13.52;8.15;;;12.90;75.30;;;;;;5056600;28;20055;-66
2023/01/01 00:42:34;;;;;;;16.33;8.10;;;12.90;74.60;;;;;;5066018;28;20056;-64
2023/01/01 00:45:01;;;;;;;18.00;11.75;;;13.00;74.80;;;;;;5069946;28;20059;-64
2023/01/01 00:47:34;;;;;;;20.08;13.05;;;13.00;75.20;;;;;;5068652;28;20059;-64
2023/01/01 00:50:01;;;;;;;20.73;13.65;;;12.90;75.80;;;;;;5052597;28;20132;-65
2023/01/01 00:52:29;;;;;;;21.83;13.65;;;12.90;75.70;;;;;;5070567;28;20552;-66
2023/01/01 00:54:56;;;;;;;21.27;12.98;;;12.90;75.70;;;;;;5068444;28;20056;-65
2023/01/01 00:57:23;;;;;;;20.17;12.40;;;12.80;75.60;;;;;;5069664;28;20052;-62
2023/01/01 00:59:50;;;;;;;19.48;12.38;;;12.80;76.00;;;;;;5069946;28;20147;-61
2023/01/01 01:02:17;;;;;;;18.77;11.95;;;12.80;75.50;;;;;;5069814;28;20048;-61
2023/01/01 01:04:44;;;;;;;19.90;11.80;;;12.70;75.80;;;;;;5066307;28;20067;-62
2023/01/01 01:07:11;;;;;;;16.65;11.02;;;12.70;75.90;;;;;;5061859;28;20044;-62
2023/01/01 01:09:39;;;;;;;17.45;10.98;;;12.70;75.40;;;;;;5049041;28;20048;-63
2023/01/01 01:12:06;;;;;;;19.48;10.05;;;12.70;76.00;;;;;;5065108;28;20048;-60
2023/01/01 01:14:34;;;;;;;16.85;10.13;;;12.70;75.70;;;;;;5058731;28;20522;-62
2023/01/01 01:17:01;;;;;;;16.25;9.25;;;12.60;75.70;;;;;;5063943;28;20053;-61
2023/01/01 01:19:28;;;;;;;12.63;8.90;;;12.70;76.00;;;;;;5048763;28;20106;-61
2023/01/01 01:21:54;;;;;;;15.05;9.30;;;12.60;75.90;;;;;;5064997;28;20059;-67
2023/01/01 01:24:21;;;;;;;14.35;9.18;;;12.70;75.90;;;;;;5067710;28;20049;-66
2023/01/01 01:26:49;;;;;;;16.20;10.02;;;12.60;76.30;;;;;;5065403;28;20041;-65
2023/01/01 01:29:16;;;;;;;17.02;10.32;;;12.60;76.50;;;;;;5068013;28;20052;-64
2023/01/01 01:31:43;;;;;;;15.25;9.65;;;12.60;76.20;;;;;;5067009;28;20056;-63
2023/01/01 01:34:10;;;;;;;14.15;9.50;;;12.60;76.40;;;;;;5069649;28;20060;-64
2023/01/01 01:36:38;;;;;;;16.35;9.02;;;12.50;76.00;;;;;;5068030;28;20052;-64
2023/01/01 01:39:05;;;;;;;13.98;9.10;;;12.50;75.80;;;;;;5064625;28;20478;-65
2023/01/01 01:41:32;;;;;;;15.25;8.82;;;12.40;76.00;;;;;;5062817;28;20049;-64
2023/01/01 01:44:02;;;;;;;15.18;8.95;;;12.40;76.80;;;;;;5056468;28;20040;-64
2023/01/01 01:46:33;;;;;;;12.50;8.82;;;12.40;76.00;;;;;;5051040;28;20049;-70
2023/01/01 01:49:05;;;;;;;15.02;8.50;;;12.40;76.10;;;;;;5047134;28;20056;-71
2023/01/01 01:51:36;;;;;;;12.55;8.07;;;12.40;76.80;;;;;;5052128;28;20045;-61
2023/01/01 01:54:04;;;;;;;;;;;12.40;76.70;;;;;;5054794;28;20064;-62
2023/01/01 01:56:40;;;;;;;13.82;8.30;;;12.40;77.00;;;;;;5054494;28;19932;-61
2023/01/01 01:59:09;;;;;;;12.73;7.90;;;12.40;76.50;;;;;;5054002;28;20052;-62
2023/01/01 02:01:36;;;;;;;13.80;8.00;;;12.40;76.50;;;;;;5041532;28;20071;-63
2023/01/01 02:04:05;;;;;;;12.38;7.80;;;12.40;76.90;;;;;;5046567;28;20555;-62
2023/01/01 02:06:33;;;;;;;14.07;7.93;;;12.40;76.90;;;;;;5055533;28;20076;-62
2023/01/01 02:09:03;;;;;;;13.35;7.57;;;12.40;77.20;;;;;;5055933;28;20045;-62
2023/01/01 02:11:30;;;;;;;11.07;6.97;;;12.40;77.50;;;;;;5053056;28;20053;-60
2023/01/01 02:13:58;;;;;;;12.77;7.35;;;12.40;77.40;;;;;;5056869;28;20056;-61
2023/01/01 02:16:33;;;;;;;13.05;7.60;;;12.30;77.30;;;;;;5052261;28;20048;-62
2023/01/01 02:19:07;;;;;;;13.98;8.77;;;12.30;77.50;;;;;;5047426;28;20041;-62
2023/01/01 02:21:39;;;;;;;12.60;7.93;;;12.40;77.70;;;;;;5049382;28;20045;-62
2023/01/01 02:24:32;;;;;;;13.32;7.65;;;12.30;77.80;;;;;;5050647;28;20064;-61
2023/01/01 02:27:04;;;;;;;12.68;7.68;;;12.30;77.90;;;;;;5050507;28;20045;-64
2023/01/01 02:29:42;;;;;;;15.05;8.52;;;12.30;77.80;;;;;;5048170;28;20052;-66
2023/01/01 02:32:12;;;;;;;12.60;7.45;;;12.30;78.00;;;;;;5055655;28;20048;-69
2023/01/01 02:34:42;;;;;;;11.70;7.60;;;12.30;78.20;;;;;;5053861;28;20093;-68
2023/01/01 02:37:12;;;;;;;13.13;8.10;;;12.30;78.30;;;;;;5052524;28;21652;-66
2023/01/01 02:39:41;;;;;;;;;;;12.20;78.10;;;;;;5051403;28;20102;-68
2023/01/01 02:42:08;;;;;;;10.48;6.63;;;12.30;78.20;;;;;;5058075;28;19959;-63
2023/01/01 02:44:43;;;;;;;9.45;6.22;;;12.30;78.10;;;;;;5065324;28;20058;-65
2023/01/01 02:47:12;;;;;;;14.00;7.03;;;12.20;78.00;;;;;;5064676;28;20036;-62
2023/01/01 02:49:55;;;;;;;12.60;7.30;;;12.30;77.90;;;;;;5066952;28;20487;-62
2023/01/01 02:52:44;;;;;;;10.70;6.32;;;12.20;78.20;;;;;;5066943;28;20400;-62
2023/01/01 02:55:25;;;;;;;8.77;5.78;;;12.30;78.00;;;;;;5064934;28;20044;-62
2023/01/01 03:00:17;;;;;;;11.43;6.45;;;12.30;78.20;;;;;;5065106;28;20052;-62
2023/01/01 03:00:49;;;;;;;10.75;6.50;;;12.30;78.20;;;;;;5067934;28;20068;-62
2023/01/01 03:03:25;;;;;;;10.07;6.07;;;12.20;78.40;;;;;;5062576;28;20043;-62
2023/01/01 03:08:48;;;;;;;9.20;5.32;;;12.30;78.40;;;;;;5067052;28;20495;-61
2023/01/01 03:11:18;;;;;;;9.00;4.65;;;12.30;78.50;;;;;;5061947;28;20052;-62
2023/01/01 03:13:52;;;;;;;10.13;5.05;;;12.30;78.50;;;;;;5065133;28;20547;-61
2023/01/01 03:16:26;;;;;;;9.00;4.60;;;12.30;78.60;;;;;;5067128;28;20051;-67
2023/01/01 03:19:10;;;;;;;9.27;5.18;;;12.30;78.70;;;;;;5064651;28;20056;-67
2023/01/01 03:21:44;;;;;;;8.02;4.45;;;12.30;78.70;;;;;;5063358;28;20045;-65
2023/01/01 03:24:17;;;;;;;8.80;4.28;;;12.30;78.60;;;;;;5062404;28;20048;-67
2023/01/01 03:26:47;;;;;;;7.68;4.32;;;12.30;78.90;;;;;;5067668;28;20049;-66
2023/01/01 03:29:16;;;;;;;6.95;4.53;;;12.30;78.90;;;;;;5064322;28;20056;-67
2023/01/01 03:31:47;;;;;;;9.13;4.20;;;12.30;78.90;;;;;;5066061;28;20049;-66
2023/01/01 03:34:20;;;;;;;7.93;4.00;;;12.30;78.90;;;;;;5069700;28;20477;-67
2023/01/01 03:36:52;;;;;;;8.35;4.25;;;12.30;79.00;;;;;;5065314;28;20159;-67
2023/01/01 03:39:24;;;;;;;6.00;3.50;;;12.30;79.00;;;;;;5064708;28;20041;-66
2023/01/01 03:41:58;;;;;;;7.15;3.90;;;12.30;79.00;;;;;;5065037;28;20051;-70
2023/01/01 03:44:30;;;;;;;7.80;3.80;;;12.30;79.00;;;;;;5055749;28;20049;-70
2023/01/01 03:46:59;;;;;;;6.75;3.70;;;12.30;79.20;;;;;;5055218;28;20048;-62
2023/01/01 03:49:27;;;;;;;8.33;3.73;;;12.30;79.10;;;;;;5055354;28;20053;-62
2023/01/01 03:52:04;;;;;;;7.35;3.92;;;12.30;79.20;;;;;;5053761;28;20482;-71
2023/01/01 03:54:38;;;;;;;5.70;3.08;;;12.30;79.20;;;;;;5055749;28;20056;-70
2023/01/01 03:57:11;;;;;;;8.55;3.50;;;12.30;79.30;;;;;;5045859;28;20049;-66
2023/01/01 03:59:56;;;;;;;7.72;3.13;;;12.30;79.30;;;;;;5023703;28;20080;-67
2023/01/01 04:02:30;;;;;;;7.75;2.75;;;12.30;79.50;;;;;;5055641;28;20090;-67
2023/01/01 04:04:59;;;;;;;5.82;3.20;;;12.30;79.50;;;;;;5054941;28;20049;-67
2023/01/01 04:07:28;;;;;;;5.90;3.15;;;12.30;79.40;;;;;;5052459;28;20057;-63
2023/01/01 04:10:00;;;;;;;7.90;3.15;;;12.30;79.40;;;;;;5054288;28;20045;-66
2023/01/01 04:12:29;;;;;;;6.20;3.20;;;12.30;79.40;;;;;;5049635;28;20586;-64
2023/01/01 04:14:56;;;;;;;4.95;2.72;;;12.30;79.40;;;;;;5054698;28;20041;-64
2023/01/01 04:17:24;;;;;;;5.68;2.92;;;12.30;79.30;;;;;;5057169;28;20045;-62
2023/01/01 04:19:51;;;;;;;8.32;3.20;;;12.30;79.20;;;;;;5056689;28;20052;-61
2023/01/01 04:22:22;;;;;;;6.43;2.88;;;12.30;79.30;;;;;;5055901;28;20033;-70
2023/01/01 04:24:48;;;;;;;7.00;3.38;;;12.30;79.20;;;;;;5053759;28;20045;-72
2023/01/01 04:27:15;;;;;;;6.68;2.75;;;12.30;79.30;;;;;;5056824;28;20098;-69
2023/01/01 04:29:42;;;;;;;6.63;3.28;;;12.30;79.30;;;;;;5053975;28;20055;-69
2023/01/01 04:32:09;;;;;;;8.10;3.88;;;12.30;79.30;;;;;;5054506;28;20053;-71
2023/01/01 04:34:37;;;;;;;6.45;3.53;;;12.30;79.30;;;;;;5058214;28;20041;-71
2023/01/01 04:37:04;;;;;;;6.82;3.08;;;12.30;79.30;;;;;;5054811;28;20046;-62
2023/01/01 04:39:31;;;;;;;6.05;2.85;;;12.30;79.40;;;;;;5055083;28;20064;-64
2023/01/01 04:41:58;;;;;;;7.38;3.55;;;12.20;79.50;;;;;;5058520;28;20056;-70
2023/01/01 04:44:25;;;;;;;7.43;3.42;;;12.20;79.60;;;;;;5069487;28;20533;-69
2023/01/01 04:46:52;;;;;;;6.05;3.03;;;12.20;79.80;;;;;;5068452;28;20094;-69
2023/01/01 04:49:19;;;;;;;6.88;3.00;;;12.20;79.50;;;;;;5069936;28;20049;-69
2023/01/01 04:51:47;;;;;;;8.13;3.20;;;12.20;79.50;;;;;;5066605;28;20753;-70
2023/01/01 04:54:14;;;;;;;8.35;3.35;;;12.20;79.70;;;;;;5068339;28;20570;-69
2023/01/01 04:56:41;;;;;;;6.22;3.17;;;12.20;79.80;;;;;;5066557;28;20048;-70
2023/01/01 04:59:08;;;;;;;6.13;3.17;;;12.20;79.80;;;;;;5070268;28;20049;-69
2023/01/01 05:01:34;;;;;;;4.57;2.60;;;12.20;79.70;;;;;;5067309;28;20045;-70
2023/01/01 05:04:01;;;;;;;6.25;3.28;;;12.10;79.80;;;;;;5069479;28;20052;-69
2023/01/01 05:06:30;;;;;;;6.75;2.78;;;12.10;79.80;;;;;;5063863;28;20418;-62
2023/01/01 05:09:00;;;;;;;9.27;3.50;;;12.20;79.80;;;;;;5070004;28;20044;-62
2023/01/01 05:11:32;;;;;;;5.80;2.75;;;12.10;79.80;;;;;;5063302;28;20415;-63
2023/01/01 05:14:00;;;;;;;7.32;2.72;;;12.10;79.90;;;;;;5065758;28;20068;-62
2023/01/01 05:16:29;;;;;;;6.75;2.92;;;12.10;79.90;;;;;;5066752;28;20563;-62
2023/01/01 05:18:56;;;;;;;6.30;3.00;;;12.10;79.70;;;;;;5070068;28;20055;-65
2023/01/01 05:21:26;;;;;;;6.65;3.03;;;12.10;79.80;;;;;;5049271;28;20049;-62
2023/01/01 05:23:55;;;;;;;5.45;2.47;;;12.10;80.00;;;;;;5066433;28;20051;-61
2023/01/01 05:26:27;;;;;;;7.68;3.50;;;12.10;80.00;;;;;;5069065;28;20032;-62
2023/01/01 05:28:54;;;;;;;5.68;2.65;;;12.00;80.10;;;;;;5063493;28;20041;-62
2023/01/01 05:31:24;;;;;;;5.63;2.70;;;12.00;80.00;;;;;;5067325;28;20506;-61
2023/01/01 05:33:53;;;;;;;5.07;2.85;;;12.00;80.20;;;;;;5069880;28;20123;-62
2023/01/01 05:36:22;;;;;;;6.32;2.30;;;12.00;80.10;;;;;;5064747;28;20044;-62
2023/01/01 05:38:49;;;;;;;5.25;2.85;;;11.90;80.30;;;;;;5067331;28;20052;-62
2023/01/01 05:41:17;;;;;;;6.28;2.88;;;11.90;80.40;;;;;;5064121;28;20047;-62
2023/01/01 05:43:46;;;;;;;5.20;2.40;;;11.90;80.30;;;;;;5053091;28;20037;-62
2023/01/01 05:46:14;;;;;;;5.80;2.75;;;11.90;80.30;;;;;;5052448;28;20053;-63
2023/01/01 05:48:42;;;;;;;8.50;2.42;;;11.90;80.30;;;;;;5056027;28;20045;-62
2023/01/01 05:51:10;;;;;;;9.13;2.80;;;11.90;80.40;;;;;;5051890;28;20503;-61
2023/01/01 05:53:37;;;;;;;5.72;2.60;;;11.90;80.40;;;;;;5054455;28;20045;-61
2023/01/01 05:56:06;;;;;;;5.38;2.70;;;11.80;80.50;;;;;;5037886;28;20056;-66
2023/01/01 05:58:34;;;;;;;5.38;2.67;;;11.80;80.60;;;;;;5054571;28;20060;-66
2023/01/01 06:01:08;;;;;;;5.10;2.30;;;11.70;80.50;;;;;;5050907;28;20044;-66
2023/01/01 06:03:35;;;;;;;8.32;2.65;;;11.70;80.50;;;;;;5052767;28;20057;-66
2023/01/01 06:06:06;;;;;;;6.05;2.40;;;11.70;80.40;;;;;;5052288;28;20507;-61
2023/01/01 06:08:33;;;;;;;8.00;2.50;;;11.70;80.60;;;;;;5049574;28;20060;-64
2023/01/01 06:11:01;;;;;;;5.47;2.22;;;11.70;80.40;;;;;;5055472;28;20048;-63
2023/01/01 06:13:28;;;;;;;6.03;2.50;;;11.70;80.40;;;;;;5036956;28;20040;-62
2023/01/01 06:15:56;;;;;;;5.90;2.60;;;11.70;80.50;;;;;;5051687;28;20080;-62
2023/01/01 06:18:25;;;;;;;5.25;2.22;;;11.70;80.40;;;;;;5052766;28;20049;-62
2023/01/01 06:20:52;;;;;;;5.07;2.38;;;11.70;80.30;;;;;;5053054;28;20057;-63
2023/01/01 06:23:19;;;;;;;5.35;2.60;;;11.70;80.20;;;;;;5054847;28;20044;-61
2023/01/01 06:25:46;;;;;;;6.55;2.60;;;11.80;79.90;;;;;;5055384;28;20048;-62
2023/01/01 06:28:13;;;;;;;4.18;1.90;;;11.80;79.10;;;;;;5056591;28;20131;-62
2023/01/01 06:30:44;;;;;;;3.58;2.28;;;11.80;78.90;;;;;;5050229;28;20458;-70
2023/01/01 06:33:11;;;;;;;5.47;2.03;;;11.90;79.00;;;;;;5051317;28;20059;-71
2023/01/01 06:35:39;;;;;;;6.45;2.40;;;11.90;78.90;;;;;;5055491;28;20061;-69
2023/01/01 06:38:06;;;;;;;4.40;2.20;;;11.90;78.40;;;;;;5058690;28;20045;-68
2023/01/01 06:40:33;;;;;;;4.03;2.00;;;12.00;78.10;;;;;;5054291;28;20060;-69
2023/01/01 06:43:00;;;;;;;3.58;2.10;;;12.00;78.30;;;;;;5065303;28;20055;-70
2023/01/01 06:45:29;;;;;;;5.78;1.92;;;12.00;78.40;;;;;;5068028;28;20056;-65
2023/01/01 06:47:57;;;;;;;4.65;1.95;;;12.00;78.50;;;;;;5065051;28;20076;-64
2023/01/01 06:50:23;;;;;;;4.25;1.90;;;11.90;78.60;;;;;;5063611;28;20060;-63
2023/01/01 06:52:52;;;;;;;4.63;2.08;;;11.90;79.00;;;;;;5066007;28;20056;-64
2023/01/01 06:55:18;;;;;;;4.07;2.00;;;11.90;78.60;;;;;;5066652;28;20067;-64
2023/01/01 06:57:45;;;;;;;5.18;2.20;;;11.90;78.80;;;;;;5063572;28;20049;-60
2023/01/01 07:00:14;;;;;;;3.58;1.73;;;11.90;78.90;;;;;;5066690;28;20048;-60
2023/01/01 07:02:41;;;;;;;4.53;2.00;;;11.90;78.90;;;;;;5067394;28;20051;-60
2023/01/01 07:05:09;;;;;;;4.15;1.75;;;11.90;78.80;;;;;;5060940;28;20403;-60
2023/01/01 07:07:37;;;;;;;5.95;1.92;;;11.90;78.80;;;;;;5060536;28;20048;-59
2023/01/01 07:10:06;;;;;;;4.10;2.17;;;11.90;79.00;;;;;;5065438;28;20476;-62
2023/01/01 07:12:33;;;;;;;4.90;2.08;;;11.90;79.20;;;;;;5066095;28;20102;-60
2023/01/01 07:15:00;;;;;;;3.97;2.05;;;11.90;79.20;;;;;;5065812;28;20094;-60
2023/01/01 07:17:31;;;;;;;3.83;2.00;;;11.80;79.20;;;;;;5062104;28;20061;-59
2023/01/01 07:19:58;;;;;;;4.68;2.10;;;11.80;79.00;;;;;;5066605;28;20068;-59
2023/01/01 07:22:25;;;;;;;4.15;2.13;;;11.80;79.10;;;;;;5061795;28;20104;-60
2023/01/01 07:24:51;;;;;;;4.47;2.20;;;11.80;79.00;;;;;;5066061;28;20119;-60
2023/01/01 07:27:20;;;;;;;5.43;2.40;;;11.80;79.10;;;;;;5068121;28;20052;-69
2023/01/01 07:29:47;;;;;;;5.88;2.40;;;11.90;79.40;;;;;;5064615;28;20060;-69
2023/01/01 07:32:16;;;;;;;5.78;2.10;;;11.80;79.40;;;;;;5064902;28;20072;-68
2023/01/01 07:34:44;;;;;;;5.30;2.08;;;11.80;79.50;;;;;;5066071;28;20053;-69
2023/01/01 07:37:11;;;;;;;5.30;2.03;;;11.80;79.50;;;;;;5066996;28;20607;-62
2023/01/01 07:39:38;;;;;;;5.47;2.05;;;11.80;79.40;;;;;;5061506;28;20072;-62
2023/01/01 07:42:05;;;;;;;4.72;2.10;;;11.80;79.40;;;;;;5057815;28;20044;-59
2023/01/01 07:44:34;;;;;;;4.75;1.88;;;11.80;79.50;;;;;;5066578;28;20045;-60
2023/01/01 07:47:02;;;;;;;5.25;2.47;;;11.80;79.40;;;;;;5068572;28;20041;-59
2023/01/01 07:49:29;;;;;;;4.70;1.83;;;11.80;79.10;;;;;;5067151;28;20056;-59
2023/01/01 07:51:56;;;;;;;7.18;2.58;;;11.80;79.10;;;;;;5064577;28;20045;-69
2023/01/01 07:54:23;;;;;;;6.72;2.38;;;11.90;78.70;;;;;;5065417;28;20054;-70
2023/01/01 07:56:50;;;;;;;5.32;2.20;;;11.90;78.70;;;;;;5063060;28;20052;-62
2023/01/01 07:59:19;;;;;;;6.35;1.90;;;11.90;78.60;;;;;;5062258;28;20047;-62
2023/01/01 08:01:47;;;;;;;3.25;1.85;;;11.90;78.60;;;;;;5064732;28;20075;-70
2023/01/01 08:04:14;;;;;;;5.70;2.03;;;11.90;78.50;;;;;;5065025;28;20055;-69
2023/01/01 08:06:42;;;;;;;5.97;2.00;;;11.90;78.70;;;;;;5043453;28;20411;-69
2023/01/01 08:09:10;;;;;;;5.88;2.22;;;12.00;78.30;;;;;;5061322;28;20045;-70
2023/01/01 08:11:37;;;;;;;5.93;1.92;;;12.00;78.20;;;;;;5060166;28;20059;-68
2023/01/01 08:14:04;;;;;;;4.50;2.00;;;12.00;78.30;;;;;;5062705;28;20052;-69
2023/01/01 08:16:31;;;;;;;4.80;2.10;;;12.00;78.30;;;;;;5059881;28;20044;-62
2023/01/01 08:19:02;;;;;;;4.93;2.00;;;12.00;78.20;;;;;;5061684;28;20052;-61
2023/01/01 08:21:29;;;;;;;7.28;1.80;;;12.10;78.10;;;;;;5066016;28;20048;-66
2023/01/01 08:23:56;;;;;;;6.43;2.75;;;12.10;78.10;;;;;;5064896;28;20059;-68
2023/01/01 08:26:29;;;;;;;6.22;2.08;;;12.10;78.20;;;;;;5066846;28;20941;-66
2023/01/01 08:28:55;;;;;;;5.90;1.88;;;12.10;78.00;;;;;;5068529;28;20415;-67
2023/01/01 08:31:23;;;;;;;7.13;2.10;;;12.20;77.90;;;;;;5050814;28;20053;-61
2023/01/01 08:33:50;;;;;;;5.40;1.70;;;12.20;77.90;;;;;;5063465;28;20799;-61
2023/01/01 08:36:19;;;;;;;7.05;2.30;;;12.20;77.60;;;;;;5065774;28;20036;-60
2023/01/01 08:38:46;;;;;;;7.32;2.22;;;12.30;77.50;;;;;;5066769;28;20108;-62
2023/01/01 08:41:14;;;;;;;4.85;1.70;;;12.40;77.20;;;;;;5063225;28;20385;-61
2023/01/01 08:43:41;;;;;;;6.38;1.80;;;12.40;77.10;;;;;;5048336;28;20049;-61
2023/01/01 08:46:08;;;;;;;5.32;1.83;;;12.40;76.90;;;;;;5049727;28;20062;-70
2023/01/01 08:48:35;;;;;;;3.38;1.52;;;12.50;76.90;;;;;;5048424;28;20071;-70
2023/01/01 08:51:02;;;;;;;4.18;1.60;;;12.50;76.80;;;;;;5050533;28;20055;-70
2023/01/01 08:53:31;;;;;;;4.97;1.83;;;12.50;77.00;;;;;;5050357;28;20467;-71
2023/01/01 08:55:59;;;;;;;4.70;1.70;;;12.50;77.10;;;;;;5053455;28;20454;-71
2023/01/01 08:58:27;;;;;;;5.25;1.67;;;12.60;76.90;;;;;;5055760;28;20060;-70
2023/01/01 09:00:54;;;;;;;5.35;1.83;;;12.60;76.90;;;;;;5054300;28;20047;-71
2023/01/01 09:03:22;;;;;;;5.55;1.90;;;12.60;76.90;;;;;;5053270;28;20044;-70
2023/01/01 09:05:49;;;;;;;9.68;1.95;;;12.60;76.80;;;;;;5045117;28;20052;-62
2023/01/01 09:08:16;;;;;;;4.78;1.60;;;12.70;76.70;;;;;;5052655;28;20075;-61
2023/01/01 09:10:50;;;;;;;5.22;2.08;;;12.70;76.80;;;;;;5052766;28;20408;-62
2023/01/01 09:13:19;;;;;;;5.05;1.83;;;12.80;76.70;;;;;;5041914;28;20061;-61
2023/01/01 09:15:48;;;;;;;6.28;1.98;;;12.90;76.50;;;;;;5052232;28;20053;-60
2023/01/01 09:18:15;;;;;;;5.15;2.00;;;12.90;76.50;;;;;;5046884;28;20045;-61
2023/01/01 09:20:42;;;;;;;8.40;2.00;;;13.00;76.30;;;;;;5048577;28;20055;-61
2023/01/01 09:23:11;;;;;;;4.85;1.95;;;13.10;76.40;;;;;;5043433;28;20063;-61
2023/01/01 09:25:38;;;;;;;8.50;2.20;;;13.10;76.30;;;;;;5047651;28;20131;-62
2023/01/01 09:28:08;;;;;;;8.13;2.00;;;13.10;76.40;;;;;;5048460;28;20045;-62
2023/01/01 09:30:36;;;;;;;6.95;2.10;;;13.20;76.10;;;;;;5050978;28;20045;-62
2023/01/01 09:33:03;;;;;;;6.57;1.70;;;13.20;76.00;;;;;;5053959;28;20428;-62
2023/01/01 09:35:31;;;;;;;4.80;1.92;;;13.30;75.90;;;;;;5057814;28;20550;-64
2023/01/01 09:37:58;;;;;;;4.05;1.92;;;13.30;75.90;;;;;;5055446;28;20049;-62
2023/01/01 09:40:32;;;;;;;4.72;1.85;;;13.40;75.90;;;;;;5056638;28;20403;-62
2023/01/01 09:43:08;;;;;;;5.07;1.83;;;13.40;75.60;;;;;;5064636;28;20056;-63
2023/01/01 09:45:41;;;;;;;6.43;1.77;;;13.50;75.60;;;;;;5067233;28;20056;-62
2023/01/01 09:48:13;;;;;;;6.35;1.90;;;13.60;75.30;;;;;;5069578;28;20052;-62
2023/01/01 09:50:42;;;;;;;5.45;1.67;;;13.60;75.20;;;;;;5061355;28;20052;-62
2023/01/01 09:53:14;;;;;;;5.30;1.55;;;13.60;75.00;;;;;;5068305;28;20051;-62
2023/01/01 09:55:47;;;;;;;4.05;1.63;;;13.60;75.20;;;;;;5063325;28;20514;-62
2023/01/01 09:58:15;;;;;;;5.85;2.00;;;13.60;74.90;;;;;;5065552;28;20048;-62
2023/01/01 10:00:47;;;;;;;5.93;2.15;;;13.60;74.80;;;;;;5068199;28;20694;-62
2023/01/01 10:03:25;;;;;;;5.15;1.63;;;13.70;74.80;;;;;;5064477;28;20059;-62
2023/01/01 10:06:00;;;;;;;5.32;1.58;;;13.70;74.60;;;;;;5063760;28;20047;-62
2023/01/01 10:08:39;;;;;;;5.38;1.65;;;13.60;74.60;;;;;;5063139;28;20041;-62
2023/01/01 10:11:14;;;;;;;5.88;1.75;;;13.60;74.50;;;;;;5062640;28;20047;-62
2023/01/01 10:13:45;;;;;;;5.53;1.45;;;13.70;74.20;;;;;;5058498;28;20048;-62
2023/01/01 10:16:17;;;;;;;7.80;1.83;;;13.70;74.00;;;;;;5063673;28;20053;-62
2023/01/01 10:18:46;;;;;;;4.70;1.70;;;13.70;74.30;;;;;;5066224;28;20044;-62
2023/01/01 10:21:17;;;;;;;4.75;1.58;;;13.70;74.10;;;;;;5068254;28;20057;-62
2023/01/01 10:23:48;;;;;;;6.47;1.70;;;13.80;74.20;;;;;;5068615;28;20059;-62
2023/01/01 10:26:19;;;;;;;6.47;1.95;;;13.80;74.10;;;;;;5069125;28;20037;-62
2023/01/01 10:28:55;;;;;;;4.80;1.73;;;13.80;74.00;;;;;;5066791;28;20048;-61
2023/01/01 10:31:29;;;;;;;5.70;1.50;;;13.80;74.00;;;;;;5067901;28;20109;-62
2023/01/01 10:33:56;;;;;;;5.68;1.50;;;13.90;73.90;;;;;;5066797;28;20052;-62
2023/01/01 10:36:24;;;;;;;5.50;1.60;;;13.90;73.70;;;;;;5068327;28;20499;-62
2023/01/01 10:38:51;;;;;;;4.60;1.55;;;13.90;73.60;;;;;;5067231;28;20052;-62
2023/01/01 10:41:19;;;;;;;5.00;1.83;;;14.00;73.50;;;;;;5062843;28;20425;-62
2023/01/01 10:43:48;;;;;;;6.75;1.60;;;14.00;73.30;;;;;;5056547;28;20048;-61
2023/01/01 10:46:19;;;;;;;5.00;1.67;;;14.10;73.30;;;;;;5050565;28;20045;-62
2023/01/01 10:49:05;;;;;;;4.72;1.80;;;14.10;73.30;;;;;;5047378;28;20048;-62
2023/01/01 10:51:32;;;;;;;4.75;1.67;;;14.10;73.20;;;;;;5044057;28;20099;-64
2023/01/01 10:53:59;;;;;;;5.25;1.63;;;14.10;73.40;;;;;;5054875;28;20048;-62
2023/01/01 10:56:39;;;;;;;4.53;1.40;;;14.20;73.40;;;;;;5044373;28;20051;-62
2023/01/01 10:59:33;;;;;;;5.93;1.67;;;14.20;73.30;;;;;;5050479;28;20057;-63
2023/01/01 11:02:15;;;;;;;5.97;1.98;;;14.20;73.40;;;;;;5047868;28;20467;-62
2023/01/01 11:04:43;;;;;;;4.28;1.60;;;14.20;73.30;;;;;;5033206;28;20305;-62
2023/01/01 11:07:18;;;;;;;6.93;2.05;;;14.10;73.40;;;;;;5051940;28;20048;-70
2023/01/01 11:09:48;;;;;;;6.22;1.63;;;14.10;73.50;;;;;;5050630;28;20082;-71
2023/01/01 11:12:21;;;;;;;8.02;2.13;;;14.10;73.40;;;;;;5052338;28;20142;-63
2023/01/01 11:14:54;;;;;;;4.10;1.60;;;14.10;73.70;;;;;;5032433;28;20427;-63
2023/01/01 11:17:22;;;;;;;4.47;1.70;;;14.10;73.40;;;;;;5052321;28;20048;-62
2023/01/01 11:19:51;;;;;;;5.05;1.42;;;14.10;73.50;;;;;;5051673;28;20045;-61
2023/01/01 11:22:37;;;;;;;4.53;1.40;;;14.10;73.30;;;;;;5056137;28;20049;-66
2023/01/01 11:25:16;;;;;;;4.07;1.60;;;14.10;73.30;;;;;;5056447;28;20047;-67
2023/01/01 11:27:43;;;;;;;7.13;2.13;;;14.20;73.30;;;;;;5056736;28;20041;-66
2023/01/01 11:30:25;;;;;;;4.70;2.03;;;14.20;73.40;;;;;;5055583;28;20060;-67
2023/01/01 11:32:55;;;;;;;7.32;2.00;;;14.20;73.20;;;;;;5052080;28;20307;-67
2023/01/01 11:35:24;;;;;;;6.30;2.15;;;14.20;73.20;;;;;;5055319;28;20037;-61
2023/01/01 11:37:52;;;;;;;4.25;1.70;;;14.20;73.20;;;;;;5021031;28;20099;-61
2023/01/01 11:40:22;;;;;;;5.65;1.83;;;14.20;72.90;;;;;;5054472;28;20040;-62
2023/01/01 11:42:52;;;;;;;5.30;1.80;;;14.30;72.80;;;;;;5061802;28;20071;-61
2023/01/01 11:45:23;;;;;;;6.90;2.00;;;14.30;72.70;;;;;;5068051;28;20045;-61
2023/01/01 11:47:56;;;;;;;4.68;1.75;;;14.40;72.80;;;;;;5066759;28;20053;-60
2023/01/01 11:50:29;;;;;;;4.78;1.80;;;14.40;72.60;;;;;;5068091;28;20048;-61
2023/01/01 11:52:58;;;;;;;6.82;1.85;;;14.30;72.50;;;;;;5069881;28;20113;-61
2023/01/01 11:55:36;;;;;;;9.20;1.90;;;14.40;72.60;;;;;;5071848;28;20040;-63
2023/01/01 11:58:14;;;;;;;8.68;1.80;;;14.40;72.50;;;;;;5069809;28;20044;-61
2023/01/01 12:00:42;;;;;;;6.28;1.80;;;14.50;72.40;;;;;;5070317;28;20041;-70
2023/01/01 12:03:23;;;;;;;8.25;2.20;;;14.50;72.40;;;;;;5071362;28;20048;-70
2023/01/01 12:05:57;;;;;;;8.48;1.88;;;14.50;72.30;;;;;;5043137;28;20380;-69
2023/01/01 12:08:33;;;;;;;5.70;1.75;;;14.50;72.40;;;;;;5064886;28;20055;-71
2023/01/01 12:11:09;;;;;;;4.80;1.90;;;14.60;72.30;;;;;;5066358;28;20036;-62
2023/01/01 12:13:45;;;;;;;5.35;1.92;;;14.60;72.40;;;;;;5044418;28;20053;-62
2023/01/01 12:16:20;;;;;;;5.60;1.90;;;14.60;72.30;;;;;;5063192;28;20055;-62
2023/01/01 12:18:53;;;;;;;4.80;1.77;;;14.60;72.20;;;;;;5065721;28;20044;-62
2023/01/01 12:21:24;;;;;;;7.10;2.35;;;14.60;72.20;;;;;;5065429;28;20075;-68
2023/01/01 12:23:52;;;;;;;4.47;1.95;;;14.50;72.40;;;;;;5053138;28;20052;-67
2023/01/01 12:26:24;;;;;;;5.65;1.95;;;14.50;72.40;;;;;;5064306;28;20044;-68
2023/01/01 12:29:31;;;;;;;6.57;2.50;;;14.50;72.50;;;;;;5069519;28;20155;-68
2023/01/01 12:32:07;;;;;;;7.13;2.20;;;14.50;72.70;;;;;;5067972;28;20112;-66
2023/01/01 12:34:38;;;;;;;7.85;2.42;;;14.50;72.60;;;;;;5061041;28;20817;-67
2023/01/01 12:37:10;;;;;;;5.32;1.73;;;14.40;72.30;;;;;;5062317;28;20051;-67
2023/01/01 12:40:29;;;;;;;6.45;2.00;;;14.50;72.30;;;;;;5063503;28;20173;-67
2023/01/01 12:43:03;;;;;;;4.80;2.08;;;14.40;72.40;;;;;;5056689;28;20041;-67
2023/01/01 12:45:50;;;;;;;4.43;1.85;;;14.40;72.80;;;;;;5051548;28;20419;-65
2023/01/01 12:48:36;;;;;;;6.22;1.60;;;14.40;72.60;;;;;;5055578;28;20120;-66
2023/01/01 12:51:14;;;;;;;6.22;1.65;;;14.40;72.50;;;;;;5049472;28;20052;-68
2023/01/01 12:53:49;;;;;;;4.97;1.83;;;14.40;72.70;;;;;;5045859;28;20041;-67
2023/01/01 12:56:21;;;;;;;6.00;1.98;;;14.40;72.80;;;;;;5055426;28;20475;-61
2023/01/01 12:58:52;;;;;;;5.70;2.10;;;14.40;72.70;;;;;;5055334;28;20044;-62
2023/01/01 13:01:23;;;;;;;4.70;1.85;;;14.40;72.80;;;;;;5054620;28;20128;-62
2023/01/01 13:03:54;;;;;;;5.13;1.63;;;14.40;72.70;;;;;;5045892;28;20059;-62